sensor_id;sensor_type;location;lat;lon;timestamp;P1;durP1;ratioP1;P2;durP2;ratioP2
10715;SDS011;5409;42.620;23.316;2024-02-21T00:00:01;2.30;;;1.98;;
10715;SDS011;5409;42.620;23.316;2024-02-21T00:02:26;1.98;;;1.30;;
10715;SDS011;5409;42.620;23.316;2024-02-21T00:04:52;1.08;;;1.02;;
10715;SDS011;5409;42.620;23.316;2024-02-21T00:07:17;2.03;;;1.70;;
10715;SDS011;5409;42.620;23.316;2024-02-21T00:09:43;3.40;;;2.17;;
10715;SDS011;5409;42.620;23.316;2024-02-21T00:12:08;2.17;;;2.00;;
10715;SDS011;5409;42.620;23.316;2024-02-21T00:14:33;2.35;;;1.75;;
10715;SDS011;5409;42.620;23.316;2024-02-21T00:16:59;2.30;;;2.03;;
10715;SDS011;5409;42.620;23.316;2024-02-21T00:19:24;3.03;;;1.88;;
10715;SDS011;5409;42.620;23.316;2024-02-21T00:21:49;2.20;;;1.98;;
10715;SDS011;5409;42.620;23.316;2024-02-21T00:24:15;1.60;;;1.50;;
10715;SDS011;5409;42.620;23.316;2024-02-21T00:26:41;1.83;;;1.70;;
10715;SDS011;5409;42.620;23.316;2024-02-21T00:29:06;1.63;;;1.52;;
10715;SDS011;5409;42.620;23.316;2024-02-21T00:31:31;1.52;;;1.40;;
10715;SDS011;5409;42.620;23.316;2024-02-21T00:33:57;1.70;;;1.48;;
10715;SDS011;5409;42.620;23.316;2024-02-21T00:36:23;4.95;;;1.60;;
10715;SDS011;5409;42.620;23.316;2024-02-21T00:38:48;4.20;;;1.85;;
10715;SDS011;5409;42.620;23.316;2024-02-21T00:41:14;1.65;;;1.52;;
10715;SDS011;5409;42.620;23.316;2024-02-21T00:43:39;1.88;;;1.40;;
10715;SDS011;5409;42.620;23.316;2024-02-21T00:46:05;2.22;;;1.35;;
10715;SDS011;5409;42.620;23.316;2024-02-21T00:48:31;1.27;;;1.17;;
10715;SDS011;5409;42.620;23.316;2024-02-21T00:50:56;7.45;;;1.95;;
10715;SDS011;5409;42.620;23.316;2024-02-21T00:53:21;5.32;;;2.05;;
10715;SDS011;5409;42.620;23.316;2024-02-21T00:55:47;3.85;;;2.00;;
10715;SDS011;5409;42.620;23.316;2024-02-21T00:58:12;1.77;;;1.48;;
10715;SDS011;5409;42.620;23.316;2024-02-21T01:00:37;3.25;;;1.60;;
10715;SDS011;5409;42.620;23.316;2024-02-21T01:03:03;3.92;;;2.20;;
10715;SDS011;5409;42.620;23.316;2024-02-21T01:05:28;2.15;;;1.65;;
10715;SDS011;5409;42.620;23.316;2024-02-21T01:07:54;3.20;;;2.90;;
10715;SDS011;5409;42.620;23.316;2024-02-21T01:10:19;2.38;;;2.17;;
10715;SDS011;5409;42.620;23.316;2024-02-21T01:12:45;3.03;;;2.47;;
10715;SDS011;5409;42.620;23.316;2024-02-21T01:15:10;2.40;;;2.20;;
10715;SDS011;5409;42.620;23.316;2024-02-21T01:17:36;5.03;;;2.85;;
10715;SDS011;5409;42.620;23.316;2024-02-21T01:20:02;3.35;;;1.70;;
10715;SDS011;5409;42.620;23.316;2024-02-21T01:22:30;4.05;;;3.08;;
10715;SDS011;5409;42.620;23.316;2024-02-21T01:24:55;2.50;;;1.73;;
10715;SDS011;5409;42.620;23.316;2024-02-21T01:27:21;3.30;;;2.83;;
10715;SDS011;5409;42.620;23.316;2024-02-21T01:29:46;2.47;;;2.20;;
10715;SDS011;5409;42.620;23.316;2024-02-21T01:32:14;4.07;;;3.72;;
10715;SDS011;5409;42.620;23.316;2024-02-21T01:34:40;3.22;;;2.38;;
10715;SDS011;5409;42.620;23.316;2024-02-21T01:37:05;3.88;;;3.13;;
10715;SDS011;5409;42.620;23.316;2024-02-21T01:39:32;4.93;;;3.85;;
10715;SDS011;5409;42.620;23.316;2024-02-21T01:41:58;5.97;;;3.22;;
10715;SDS011;5409;42.620;23.316;2024-02-21T01:44:23;2.40;;;2.13;;
10715;SDS011;5409;42.620;23.316;2024-02-21T01:46:49;4.65;;;3.45;;
10715;SDS011;5409;42.620;23.316;2024-02-21T01:49:16;6.40;;;3.85;;
10715;SDS011;5409;42.620;23.316;2024-02-21T01:51:41;3.33;;;2.92;;
10715;SDS011;5409;42.620;23.316;2024-02-21T01:54:07;2.65;;;2.15;;
10715;SDS011;5409;42.620;23.316;2024-02-21T01:56:33;5.72;;;4.47;;
10715;SDS011;5409;42.620;23.316;2024-02-21T01:58:59;5.82;;;3.42;;
10715;SDS011;5409;42.620;23.316;2024-02-21T02:01:24;4.82;;;3.40;;
10715;SDS011;5409;42.620;23.316;2024-02-21T02:03:50;7.20;;;4.70;;
10715;SDS011;5409;42.620;23.316;2024-02-21T02:06:16;8.13;;;5.13;;
10715;SDS011;5409;42.620;23.316;2024-02-21T02:08:41;4.80;;;3.67;;
10715;SDS011;5409;42.620;23.316;2024-02-21T02:11:07;10.40;;;5.25;;
10715;SDS011;5409;42.620;23.316;2024-02-21T02:13:32;6.82;;;4.28;;
10715;SDS011;5409;42.620;23.316;2024-02-21T02:15:58;5.40;;;3.97;;
10715;SDS011;5409;42.620;23.316;2024-02-21T02:18:23;6.45;;;3.92;;
10715;SDS011;5409;42.620;23.316;2024-02-21T02:20:48;8.52;;;4.45;;
10715;SDS011;5409;42.620;23.316;2024-02-21T02:23:21;5.20;;;4.70;;
10715;SDS011;5409;42.620;23.316;2024-02-21T02:25:48;6.10;;;4.07;;
10715;SDS011;5409;42.620;23.316;2024-02-21T02:28:17;7.43;;;4.55;;
10715;SDS011;5409;42.620;23.316;2024-02-21T02:30:43;7.82;;;5.15;;
10715;SDS011;5409;42.620;23.316;2024-02-21T02:33:08;10.38;;;5.60;;
10715;SDS011;5409;42.620;23.316;2024-02-21T02:35:34;11.60;;;6.32;;
10715;SDS011;5409;42.620;23.316;2024-02-21T02:38:01;11.75;;;5.00;;
10715;SDS011;5409;42.620;23.316;2024-02-21T02:40:30;7.20;;;3.60;;
10715;SDS011;5409;42.620;23.316;2024-02-21T02:42:59;9.73;;;5.00;;
10715;SDS011;5409;42.620;23.316;2024-02-21T02:45:25;9.88;;;5.00;;
10715;SDS011;5409;42.620;23.316;2024-02-21T02:47:53;6.43;;;4.18;;
10715;SDS011;5409;42.620;23.316;2024-02-21T02:50:20;5.50;;;2.80;;
10715;SDS011;5409;42.620;23.316;2024-02-21T02:52:46;8.20;;;5.15;;
10715;SDS011;5409;42.620;23.316;2024-02-21T02:55:11;8.48;;;6.45;;
10715;SDS011;5409;42.620;23.316;2024-02-21T02:57:37;8.57;;;4.53;;
10715;SDS011;5409;42.620;23.316;2024-02-21T03:00:02;8.20;;;4.30;;
10715;SDS011;5409;42.620;23.316;2024-02-21T03:02:28;9.43;;;5.40;;
10715;SDS011;5409;42.620;23.316;2024-02-21T03:04:55;12.60;;;5.65;;
10715;SDS011;5409;42.620;23.316;2024-02-21T03:07:20;5.75;;;3.75;;
10715;SDS011;5409;42.620;23.316;2024-02-21T03:09:45;4.47;;;3.67;;
10715;SDS011;5409;42.620;23.316;2024-02-21T03:12:11;10.77;;;5.63;;
10715;SDS011;5409;42.620;23.316;2024-02-21T03:14:36;12.50;;;5.88;;
10715;SDS011;5409;42.620;23.316;2024-02-21T03:17:02;10.60;;;6.82;;
10715;SDS011;5409;42.620;23.316;2024-02-21T03:19:28;8.02;;;5.63;;
10715;SDS011;5409;42.620;23.316;2024-02-21T03:21:54;10.50;;;7.00;;
10715;SDS011;5409;42.620;23.316;2024-02-21T03:24:20;10.80;;;6.43;;
10715;SDS011;5409;42.620;23.316;2024-02-21T03:26:46;8.75;;;5.20;;
10715;SDS011;5409;42.620;23.316;2024-02-21T03:29:15;7.85;;;5.28;;
10715;SDS011;5409;42.620;23.316;2024-02-21T03:31:41;8.90;;;5.68;;
10715;SDS011;5409;42.620;23.316;2024-02-21T03:34:07;6.32;;;3.97;;
10715;SDS011;5409;42.620;23.316;2024-02-21T03:36:36;4.90;;;2.88;;
10715;SDS011;5409;42.620;23.316;2024-02-21T03:39:01;11.38;;;6.05;;
10715;SDS011;5409;42.620;23.316;2024-02-21T03:41:27;7.30;;;5.70;;
10715;SDS011;5409;42.620;23.316;2024-02-21T03:43:52;9.25;;;4.60;;
10715;SDS011;5409;42.620;23.316;2024-02-21T03:46:17;8.15;;;5.88;;
10715;SDS011;5409;42.620;23.316;2024-02-21T03:48:43;11.80;;;7.63;;
10715;SDS011;5409;42.620;23.316;2024-02-21T03:51:08;9.82;;;4.60;;
10715;SDS011;5409;42.620;23.316;2024-02-21T03:53:33;10.02;;;5.47;;
10715;SDS011;5409;42.620;23.316;2024-02-21T03:56:02;10.68;;;5.60;;
10715;SDS011;5409;42.620;23.316;2024-02-21T03:58:29;8.52;;;4.35;;
10715;SDS011;5409;42.620;23.316;2024-02-21T04:00:55;13.48;;;5.05;;
10715;SDS011;5409;42.620;23.316;2024-02-21T04:03:20;7.95;;;4.78;;
10715;SDS011;5409;42.620;23.316;2024-02-21T04:05:45;9.90;;;5.93;;
10715;SDS011;5409;42.620;23.316;2024-02-21T04:08:11;5.82;;;4.50;;
10715;SDS011;5409;42.620;23.316;2024-02-21T04:10:37;10.68;;;6.53;;
10715;SDS011;5409;42.620;23.316;2024-02-21T04:13:02;11.48;;;7.03;;
10715;SDS011;5409;42.620;23.316;2024-02-21T04:15:28;10.93;;;6.07;;
10715;SDS011;5409;42.620;23.316;2024-02-21T04:17:54;10.10;;;5.85;;
10715;SDS011;5409;42.620;23.316;2024-02-21T04:20:19;10.77;;;5.57;;
10715;SDS011;5409;42.620;23.316;2024-02-21T04:22:45;10.77;;;6.00;;
10715;SDS011;5409;42.620;23.316;2024-02-21T04:25:11;7.68;;;5.53;;
10715;SDS011;5409;42.620;23.316;2024-02-21T04:27:37;9.32;;;5.90;;
10715;SDS011;5409;42.620;23.316;2024-02-21T04:30:03;10.15;;;6.07;;
10715;SDS011;5409;42.620;23.316;2024-02-21T04:32:29;11.25;;;5.60;;
10715;SDS011;5409;42.620;23.316;2024-02-21T04:34:55;13.15;;;6.63;;
10715;SDS011;5409;42.620;23.316;2024-02-21T04:37:20;12.63;;;6.65;;
10715;SDS011;5409;42.620;23.316;2024-02-21T04:39:45;10.80;;;6.25;;
10715;SDS011;5409;42.620;23.316;2024-02-21T04:42:11;12.13;;;6.43;;
10715;SDS011;5409;42.620;23.316;2024-02-21T04:44:37;12.35;;;7.00;;
10715;SDS011;5409;42.620;23.316;2024-02-21T04:47:03;14.15;;;6.30;;
10715;SDS011;5409;42.620;23.316;2024-02-21T04:49:29;10.80;;;6.63;;
10715;SDS011;5409;42.620;23.316;2024-02-21T04:51:54;15.23;;;7.78;;
10715;SDS011;5409;42.620;23.316;2024-02-21T04:54:20;14.68;;;8.23;;
10715;SDS011;5409;42.620;23.316;2024-02-21T04:56:45;14.07;;;7.47;;
10715;SDS011;5409;42.620;23.316;2024-02-21T04:59:10;13.98;;;7.40;;
10715;SDS011;5409;42.620;23.316;2024-02-21T05:01:36;12.82;;;7.50;;
10715;SDS011;5409;42.620;23.316;2024-02-21T05:04:01;13.05;;;6.60;;
10715;SDS011;5409;42.620;23.316;2024-02-21T05:06:27;10.82;;;7.03;;
10715;SDS011;5409;42.620;23.316;2024-02-21T05:08:53;7.10;;;4.82;;
10715;SDS011;5409;42.620;23.316;2024-02-21T05:11:20;7.28;;;6.38;;
10715;SDS011;5409;42.620;23.316;2024-02-21T05:13:48;7.57;;;3.40;;
10715;SDS011;5409;42.620;23.316;2024-02-21T05:16:14;5.82;;;4.25;;
10715;SDS011;5409;42.620;23.316;2024-02-21T05:18:40;7.15;;;4.72;;
10715;SDS011;5409;42.620;23.316;2024-02-21T05:21:05;5.72;;;3.65;;
10715;SDS011;5409;42.620;23.316;2024-02-21T05:23:31;10.30;;;5.22;;
10715;SDS011;5409;42.620;23.316;2024-02-21T05:25:56;8.30;;;5.25;;
10715;SDS011;5409;42.620;23.316;2024-02-21T05:28:22;8.65;;;4.30;;
10715;SDS011;5409;42.620;23.316;2024-02-21T05:30:47;8.30;;;4.25;;
10715;SDS011;5409;42.620;23.316;2024-02-21T05:33:13;9.23;;;5.47;;
10715;SDS011;5409;42.620;23.316;2024-02-21T05:35:46;7.00;;;5.22;;
10715;SDS011;5409;42.620;23.316;2024-02-21T05:38:11;7.80;;;4.72;;
10715;SDS011;5409;42.620;23.316;2024-02-21T05:40:36;9.13;;;4.72;;
10715;SDS011;5409;42.620;23.316;2024-02-21T05:43:02;8.05;;;4.95;;
10715;SDS011;5409;42.620;23.316;2024-02-21T05:45:27;9.85;;;6.32;;
10715;SDS011;5409;42.620;23.316;2024-02-21T05:47:53;7.53;;;4.53;;
10715;SDS011;5409;42.620;23.316;2024-02-21T05:50:18;6.25;;;3.88;;
10715;SDS011;5409;42.620;23.316;2024-02-21T05:52:44;7.97;;;5.25;;
10715;SDS011;5409;42.620;23.316;2024-02-21T05:55:09;5.05;;;3.80;;
10715;SDS011;5409;42.620;23.316;2024-02-21T05:57:35;10.30;;;5.18;;
10715;SDS011;5409;42.620;23.316;2024-02-21T06:00:02;7.57;;;4.88;;
10715;SDS011;5409;42.620;23.316;2024-02-21T06:02:30;10.90;;;6.05;;
10715;SDS011;5409;42.620;23.316;2024-02-21T06:04:55;9.65;;;5.78;;
10715;SDS011;5409;42.620;23.316;2024-02-21T06:07:20;12.88;;;6.40;;
10715;SDS011;5409;42.620;23.316;2024-02-21T06:09:46;10.57;;;6.38;;
10715;SDS011;5409;42.620;23.316;2024-02-21T06:12:11;13.05;;;7.32;;
10715;SDS011;5409;42.620;23.316;2024-02-21T06:14:37;8.60;;;5.03;;
10715;SDS011;5409;42.620;23.316;2024-02-21T06:17:02;14.57;;;6.18;;
10715;SDS011;5409;42.620;23.316;2024-02-21T06:19:28;11.10;;;5.75;;
10715;SDS011;5409;42.620;23.316;2024-02-21T06:21:53;9.15;;;6.10;;
10715;SDS011;5409;42.620;23.316;2024-02-21T06:24:18;10.90;;;5.97;;
10715;SDS011;5409;42.620;23.316;2024-02-21T06:26:44;11.43;;;6.75;;
10715;SDS011;5409;42.620;23.316;2024-02-21T06:29:09;11.70;;;6.03;;
10715;SDS011;5409;42.620;23.316;2024-02-21T06:31:35;11.23;;;6.45;;
10715;SDS011;5409;42.620;23.316;2024-02-21T06:34:01;11.77;;;6.25;;
10715;SDS011;5409;42.620;23.316;2024-02-21T06:36:27;11.65;;;6.10;;
10715;SDS011;5409;42.620;23.316;2024-02-21T06:38:52;10.88;;;6.30;;
10715;SDS011;5409;42.620;23.316;2024-02-21T06:41:18;17.58;;;8.27;;
10715;SDS011;5409;42.620;23.316;2024-02-21T06:43:47;13.25;;;7.28;;
10715;SDS011;5409;42.620;23.316;2024-02-21T06:46:23;14.52;;;7.65;;
10715;SDS011;5409;42.620;23.316;2024-02-21T06:48:50;9.43;;;5.60;;
10715;SDS011;5409;42.620;23.316;2024-02-21T06:51:15;9.52;;;5.80;;
10715;SDS011;5409;42.620;23.316;2024-02-21T06:53:41;14.25;;;6.03;;
10715;SDS011;5409;42.620;23.316;2024-02-21T06:56:06;11.82;;;6.47;;
10715;SDS011;5409;42.620;23.316;2024-02-21T06:58:32;18.75;;;6.20;;
10715;SDS011;5409;42.620;23.316;2024-02-21T07:00:57;6.70;;;4.25;;
10715;SDS011;5409;42.620;23.316;2024-02-21T07:03:22;9.15;;;5.70;;
10715;SDS011;5409;42.620;23.316;2024-02-21T07:05:49;15.07;;;7.13;;
10715;SDS011;5409;42.620;23.316;2024-02-21T07:08:15;9.90;;;6.43;;
10715;SDS011;5409;42.620;23.316;2024-02-21T07:10:40;17.00;;;7.78;;
10715;SDS011;5409;42.620;23.316;2024-02-21T07:13:06;11.70;;;6.15;;
10715;SDS011;5409;42.620;23.316;2024-02-21T07:15:31;13.77;;;6.60;;
10715;SDS011;5409;42.620;23.316;2024-02-21T07:17:57;13.48;;;7.07;;
10715;SDS011;5409;42.620;23.316;2024-02-21T07:20:23;12.80;;;6.32;;
10715;SDS011;5409;42.620;23.316;2024-02-21T07:22:48;11.77;;;6.43;;
10715;SDS011;5409;42.620;23.316;2024-02-21T07:25:14;13.60;;;7.80;;
10715;SDS011;5409;42.620;23.316;2024-02-21T07:27:39;11.93;;;6.22;;
10715;SDS011;5409;42.620;23.316;2024-02-21T07:30:05;15.20;;;7.80;;
10715;SDS011;5409;42.620;23.316;2024-02-21T07:32:31;9.55;;;3.75;;
10715;SDS011;5409;42.620;23.316;2024-02-21T07:34:56;9.43;;;6.13;;
10715;SDS011;5409;42.620;23.316;2024-02-21T07:37:22;9.07;;;5.97;;
10715;SDS011;5409;42.620;23.316;2024-02-21T07:39:47;12.85;;;6.97;;
10715;SDS011;5409;42.620;23.316;2024-02-21T07:42:12;12.50;;;6.65;;
10715;SDS011;5409;42.620;23.316;2024-02-21T07:44:38;13.45;;;7.50;;
10715;SDS011;5409;42.620;23.316;2024-02-21T07:47:03;11.07;;;6.05;;
10715;SDS011;5409;42.620;23.316;2024-02-21T07:49:29;12.05;;;5.60;;
10715;SDS011;5409;42.620;23.316;2024-02-21T07:51:54;9.73;;;6.55;;
10715;SDS011;5409;42.620;23.316;2024-02-21T07:54:19;12.27;;;6.95;;
10715;SDS011;5409;42.620;23.316;2024-02-21T07:56:45;14.60;;;7.72;;
10715;SDS011;5409;42.620;23.316;2024-02-21T07:59:10;13.32;;;7.00;;
10715;SDS011;5409;42.620;23.316;2024-02-21T08:01:35;14.30;;;7.15;;
10715;SDS011;5409;42.620;23.316;2024-02-21T08:04:01;13.50;;;6.82;;
10715;SDS011;5409;42.620;23.316;2024-02-21T08:06:27;12.30;;;6.25;;
10715;SDS011;5409;42.620;23.316;2024-02-21T08:08:53;13.68;;;7.38;;
10715;SDS011;5409;42.620;23.316;2024-02-21T08:11:18;14.30;;;6.90;;
10715;SDS011;5409;42.620;23.316;2024-02-21T08:13:43;16.23;;;7.78;;
10715;SDS011;5409;42.620;23.316;2024-02-21T08:16:09;10.77;;;8.23;;
10715;SDS011;5409;42.620;23.316;2024-02-21T08:18:34;9.80;;;4.10;;
10715;SDS011;5409;42.620;23.316;2024-02-21T08:21:03;13.45;;;5.95;;
10715;SDS011;5409;42.620;23.316;2024-02-21T08:23:28;16.70;;;8.02;;
10715;SDS011;5409;42.620;23.316;2024-02-21T08:25:54;12.07;;;6.85;;
10715;SDS011;5409;42.620;23.316;2024-02-21T08:28:19;15.25;;;9.05;;
10715;SDS011;5409;42.620;23.316;2024-02-21T08:30:45;11.45;;;7.28;;
10715;SDS011;5409;42.620;23.316;2024-02-21T08:33:13;14.25;;;7.80;;
10715;SDS011;5409;42.620;23.316;2024-02-21T08:35:39;10.68;;;5.88;;
10715;SDS011;5409;42.620;23.316;2024-02-21T08:38:05;10.55;;;6.30;;
10715;SDS011;5409;42.620;23.316;2024-02-21T08:40:30;11.27;;;5.32;;
10715;SDS011;5409;42.620;23.316;2024-02-21T08:42:55;8.90;;;5.18;;
10715;SDS011;5409;42.620;23.316;2024-02-21T08:45:21;7.95;;;5.70;;
10715;SDS011;5409;42.620;23.316;2024-02-21T08:47:46;11.23;;;5.25;;
10715;SDS011;5409;42.620;23.316;2024-02-21T08:50:12;7.20;;;4.75;;
10715;SDS011;5409;42.620;23.316;2024-02-21T08:52:37;7.63;;;4.90;;
10715;SDS011;5409;42.620;23.316;2024-02-21T08:55:03;8.07;;;5.00;;
10715;SDS011;5409;42.620;23.316;2024-02-21T08:57:29;5.68;;;4.18;;
10715;SDS011;5409;42.620;23.316;2024-02-21T08:59:54;5.35;;;3.83;;
10715;SDS011;5409;42.620;23.316;2024-02-21T09:02:20;5.30;;;3.53;;
10715;SDS011;5409;42.620;23.316;2024-02-21T09:04:45;5.82;;;4.07;;
10715;SDS011;5409;42.620;23.316;2024-02-21T09:07:10;8.07;;;4.55;;
10715;SDS011;5409;42.620;23.316;2024-02-21T09:09:36;9.07;;;4.53;;
10715;SDS011;5409;42.620;23.316;2024-02-21T09:12:04;7.53;;;4.85;;
10715;SDS011;5409;42.620;23.316;2024-02-21T09:14:36;7.53;;;4.80;;
10715;SDS011;5409;42.620;23.316;2024-02-21T09:17:05;4.25;;;3.55;;
10715;SDS011;5409;42.620;23.316;2024-02-21T09:19:30;5.60;;;3.70;;
10715;SDS011;5409;42.620;23.316;2024-02-21T09:21:56;9.82;;;6.10;;
10715;SDS011;5409;42.620;23.316;2024-02-21T09:24:21;8.10;;;4.95;;
10715;SDS011;5409;42.620;23.316;2024-02-21T09:26:46;6.65;;;4.43;;
10715;SDS011;5409;42.620;23.316;2024-02-21T09:29:12;9.32;;;5.45;;
10715;SDS011;5409;42.620;23.316;2024-02-21T09:31:37;6.78;;;4.85;;
10715;SDS011;5409;42.620;23.316;2024-02-21T09:34:03;10.40;;;5.22;;
10715;SDS011;5409;42.620;23.316;2024-02-21T09:36:29;7.72;;;5.72;;
10715;SDS011;5409;42.620;23.316;2024-02-21T09:38:55;4.82;;;3.63;;
10715;SDS011;5409;42.620;23.316;2024-02-21T09:41:27;7.63;;;4.70;;
10715;SDS011;5409;42.620;23.316;2024-02-21T09:43:53;8.20;;;5.13;;
10715;SDS011;5409;42.620;23.316;2024-02-21T09:46:19;7.20;;;4.13;;
10715;SDS011;5409;42.620;23.316;2024-02-21T09:51:23;6.72;;;5.10;;
10715;SDS011;5409;42.620;23.316;2024-02-21T09:53:51;5.97;;;3.90;;
10715;SDS011;5409;42.620;23.316;2024-02-21T09:56:18;6.55;;;4.20;;
10715;SDS011;5409;42.620;23.316;2024-02-21T09:58:44;4.97;;;4.43;;
10715;SDS011;5409;42.620;23.316;2024-02-21T10:01:11;7.05;;;4.25;;
10715;SDS011;5409;42.620;23.316;2024-02-21T10:03:37;8.15;;;3.92;;
10715;SDS011;5409;42.620;23.316;2024-02-21T10:06:03;5.88;;;4.05;;
10715;SDS011;5409;42.620;23.316;2024-02-21T10:08:28;6.55;;;4.55;;
10715;SDS011;5409;42.620;23.316;2024-02-21T10:10:54;12.32;;;6.47;;
10715;SDS011;5409;42.620;23.316;2024-02-21T10:13:27;10.45;;;5.90;;
10715;SDS011;5409;42.620;23.316;2024-02-21T10:16:06;10.20;;;6.55;;
10715;SDS011;5409;42.620;23.316;2024-02-21T10:18:35;7.72;;;4.95;;
10715;SDS011;5409;42.620;23.316;2024-02-21T10:21:04;5.07;;;4.13;;
10715;SDS011;5409;42.620;23.316;2024-02-21T10:23:43;3.75;;;3.17;;
10715;SDS011;5409;42.620;23.316;2024-02-21T10:26:10;3.05;;;2.78;;
10715;SDS011;5409;42.620;23.316;2024-02-21T10:28:36;3.75;;;2.78;;
10715;SDS011;5409;42.620;23.316;2024-02-21T10:33:32;3.42;;;2.90;;
10715;SDS011;5409;42.620;23.316;2024-02-21T10:36:05;5.57;;;3.20;;
10715;SDS011;5409;42.620;23.316;2024-02-21T10:38:35;5.22;;;3.22;;
10715;SDS011;5409;42.620;23.316;2024-02-21T10:41:05;5.32;;;3.95;;
10715;SDS011;5409;42.620;23.316;2024-02-21T10:43:33;4.90;;;4.00;;
10715;SDS011;5409;42.620;23.316;2024-02-21T10:46:07;4.95;;;4.10;;
10715;SDS011;5409;42.620;23.316;2024-02-21T10:48:43;5.70;;;5.07;;
10715;SDS011;5409;42.620;23.316;2024-02-21T10:51:19;11.70;;;3.80;;
10715;SDS011;5409;42.620;23.316;2024-02-21T10:58:59;4.03;;;3.28;;
10715;SDS011;5409;42.620;23.316;2024-02-21T11:01:25;4.40;;;3.33;;
10715;SDS011;5409;42.620;23.316;2024-02-21T11:03:53;6.57;;;3.72;;
10715;SDS011;5409;42.620;23.316;2024-02-21T11:06:19;2.53;;;2.33;;
10715;SDS011;5409;42.620;23.316;2024-02-21T11:08:47;9.45;;;4.10;;
10715;SDS011;5409;42.620;23.316;2024-02-21T11:11:14;5.30;;;2.90;;
10715;SDS011;5409;42.620;23.316;2024-02-21T11:13:45;3.90;;;3.10;;
10715;SDS011;5409;42.620;23.316;2024-02-21T11:16:12;2.65;;;1.98;;
10715;SDS011;5409;42.620;23.316;2024-02-21T11:18:49;2.70;;;2.50;;
10715;SDS011;5409;42.620;23.316;2024-02-21T11:21:15;5.13;;;3.25;;
10715;SDS011;5409;42.620;23.316;2024-02-21T11:23:40;7.25;;;3.22;;
10715;SDS011;5409;42.620;23.316;2024-02-21T11:26:09;2.97;;;2.70;;
10715;SDS011;5409;42.620;23.316;2024-02-21T11:28:35;4.63;;;3.30;;
10715;SDS011;5409;42.620;23.316;2024-02-21T11:31:08;3.47;;;3.15;;
10715;SDS011;5409;42.620;23.316;2024-02-21T11:33:36;4.25;;;3.08;;
10715;SDS011;5409;42.620;23.316;2024-02-21T11:36:08;5.45;;;4.25;;
10715;SDS011;5409;42.620;23.316;2024-02-21T11:38:34;6.32;;;3.75;;
10715;SDS011;5409;42.620;23.316;2024-02-21T11:41:00;4.82;;;4.30;;
10715;SDS011;5409;42.620;23.316;2024-02-21T11:43:25;2.45;;;2.25;;
10715;SDS011;5409;42.620;23.316;2024-02-21T11:45:57;4.32;;;3.03;;
10715;SDS011;5409;42.620;23.316;2024-02-21T11:48:24;2.67;;;1.92;;
10715;SDS011;5409;42.620;23.316;2024-02-21T11:50:55;5.85;;;3.08;;
10715;SDS011;5409;42.620;23.316;2024-02-21T11:53:22;2.10;;;1.92;;
10715;SDS011;5409;42.620;23.316;2024-02-21T11:55:47;3.97;;;3.08;;
10715;SDS011;5409;42.620;23.316;2024-02-21T11:58:13;3.92;;;2.78;;
10715;SDS011;5409;42.620;23.316;2024-02-21T12:00:38;4.15;;;2.97;;
10715;SDS011;5409;42.620;23.316;2024-02-21T12:03:05;5.53;;;3.20;;
10715;SDS011;5409;42.620;23.316;2024-02-21T12:05:30;5.95;;;4.28;;
10715;SDS011;5409;42.620;23.316;2024-02-21T12:07:57;4.22;;;3.20;;
10715;SDS011;5409;42.620;23.316;2024-02-21T12:10:23;3.97;;;2.85;;
10715;SDS011;5409;42.620;23.316;2024-02-21T12:12:51;4.18;;;3.20;;
10715;SDS011;5409;42.620;23.316;2024-02-21T12:15:17;3.55;;;2.67;;
10715;SDS011;5409;42.620;23.316;2024-02-21T12:17:43;3.80;;;3.10;;
10715;SDS011;5409;42.620;23.316;2024-02-21T12:20:09;3.30;;;2.95;;
10715;SDS011;5409;42.620;23.316;2024-02-21T12:22:36;1.73;;;1.10;;
10715;SDS011;5409;42.620;23.316;2024-02-21T12:25:19;3.33;;;3.08;;
10715;SDS011;5409;42.620;23.316;2024-02-21T12:27:51;3.00;;;2.55;;
10715;SDS011;5409;42.620;23.316;2024-02-21T12:30:17;2.55;;;2.33;;
10715;SDS011;5409;42.620;23.316;2024-02-21T12:32:43;3.78;;;2.97;;
10715;SDS011;5409;42.620;23.316;2024-02-21T12:35:08;5.72;;;3.45;;
10715;SDS011;5409;42.620;23.316;2024-02-21T12:37:33;5.50;;;2.90;;
10715;SDS011;5409;42.620;23.316;2024-02-21T12:39:59;3.40;;;3.00;;
10715;SDS011;5409;42.620;23.316;2024-02-21T12:42:25;3.75;;;2.83;;
10715;SDS011;5409;42.620;23.316;2024-02-21T12:44:51;3.10;;;2.80;;
10715;SDS011;5409;42.620;23.316;2024-02-21T12:47:17;5.15;;;3.05;;
10715;SDS011;5409;42.620;23.316;2024-02-21T12:49:44;4.72;;;3.15;;
10715;SDS011;5409;42.620;23.316;2024-02-21T12:52:10;6.72;;;3.85;;
10715;SDS011;5409;42.620;23.316;2024-02-21T12:54:36;4.93;;;3.28;;
10715;SDS011;5409;42.620;23.316;2024-02-21T12:57:01;3.13;;;2.80;;
10715;SDS011;5409;42.620;23.316;2024-02-21T12:59:28;3.75;;;2.88;;
10715;SDS011;5409;42.620;23.316;2024-02-21T13:01:54;4.43;;;2.70;;
10715;SDS011;5409;42.620;23.316;2024-02-21T13:04:19;3.00;;;2.33;;
10715;SDS011;5409;42.620;23.316;2024-02-21T13:06:46;1.88;;;1.77;;
10715;SDS011;5409;42.620;23.316;2024-02-21T13:09:12;2.47;;;2.28;;
10715;SDS011;5409;42.620;23.316;2024-02-21T13:11:38;2.83;;;2.55;;
10715;SDS011;5409;42.620;23.316;2024-02-21T13:14:05;1.38;;;1.20;;
10715;SDS011;5409;42.620;23.316;2024-02-21T13:16:31;1.90;;;1.30;;
10715;SDS011;5409;42.620;23.316;2024-02-21T13:18:56;2.17;;;1.83;;
10715;SDS011;5409;42.620;23.316;2024-02-21T13:21:22;1.40;;;1.30;;
10715;SDS011;5409;42.620;23.316;2024-02-21T13:23:47;1.80;;;1.70;;
10715;SDS011;5409;42.620;23.316;2024-02-21T13:26:13;2.05;;;1.73;;
10715;SDS011;5409;42.620;23.316;2024-02-21T13:28:39;2.72;;;1.73;;
10715;SDS011;5409;42.620;23.316;2024-02-21T13:31:04;2.58;;;2.15;;
10715;SDS011;5409;42.620;23.316;2024-02-21T13:33:29;5.97;;;2.22;;
10715;SDS011;5409;42.620;23.316;2024-02-21T13:35:55;3.22;;;2.53;;
10715;SDS011;5409;42.620;23.316;2024-02-21T13:38:20;8.10;;;2.97;;
10715;SDS011;5409;42.620;23.316;2024-02-21T13:40:46;7.03;;;4.32;;
10715;SDS011;5409;42.620;23.316;2024-02-21T13:43:11;5.00;;;3.60;;
10715;SDS011;5409;42.620;23.316;2024-02-21T13:45:37;5.60;;;4.45;;
10715;SDS011;5409;42.620;23.316;2024-02-21T13:48:03;5.57;;;4.07;;
10715;SDS011;5409;42.620;23.316;2024-02-21T13:50:31;5.07;;;3.33;;
10715;SDS011;5409;42.620;23.316;2024-02-21T13:52:57;4.13;;;3.70;;
10715;SDS011;5409;42.620;23.316;2024-02-21T13:55:22;3.45;;;3.15;;
10715;SDS011;5409;42.620;23.316;2024-02-21T13:57:51;4.60;;;3.90;;
10715;SDS011;5409;42.620;23.316;2024-02-21T14:00:17;5.60;;;3.25;;
10715;SDS011;5409;42.620;23.316;2024-02-21T14:02:43;5.85;;;2.63;;
10715;SDS011;5409;42.620;23.316;2024-02-21T14:05:08;4.45;;;3.85;;
10715;SDS011;5409;42.620;23.316;2024-02-21T14:07:34;3.47;;;2.78;;
10715;SDS011;5409;42.620;23.316;2024-02-21T14:10:00;4.15;;;3.67;;
10715;SDS011;5409;42.620;23.316;2024-02-21T14:12:25;6.55;;;2.80;;
10715;SDS011;5409;42.620;23.316;2024-02-21T14:14:50;3.88;;;3.10;;
10715;SDS011;5409;42.620;23.316;2024-02-21T14:17:17;6.78;;;3.67;;
10715;SDS011;5409;42.620;23.316;2024-02-21T14:19:42;5.28;;;3.40;;
10715;SDS011;5409;42.620;23.316;2024-02-21T14:22:08;5.05;;;3.60;;
10715;SDS011;5409;42.620;23.316;2024-02-21T14:24:33;5.78;;;3.40;;
10715;SDS011;5409;42.620;23.316;2024-02-21T14:26:58;8.25;;;4.70;;
10715;SDS011;5409;42.620;23.316;2024-02-21T14:29:24;16.85;;;5.55;;
10715;SDS011;5409;42.620;23.316;2024-02-21T14:31:50;5.20;;;3.95;;
10715;SDS011;5409;42.620;23.316;2024-02-21T14:34:15;6.88;;;5.25;;
10715;SDS011;5409;42.620;23.316;2024-02-21T14:36:41;11.75;;;4.53;;
10715;SDS011;5409;42.620;23.316;2024-02-21T14:39:07;12.35;;;5.15;;
10715;SDS011;5409;42.620;23.316;2024-02-21T14:41:32;11.55;;;5.95;;
10715;SDS011;5409;42.620;23.316;2024-02-21T14:44:00;15.38;;;7.00;;
10715;SDS011;5409;42.620;23.316;2024-02-21T14:46:25;9.85;;;4.60;;